QUAO2: Spring River Near Quapaw, OK

Data processed at Wed Jan 03 2018 23:21


All information presented herein is the property of the government of the United States of America and may be revised or deleted at any time without prior notice.
Dissemination of this information without the expressed written consent of the Public Affairs Office, Tulsa District U.S. Army Corps of Engineers is strictly prohibited.
These data are gathered electronically and, as presented, have not undergone any form of quality control. These data are not guaranteed to be valid or correct.
Go to home page.
Go to station list.

Upstream stations:

Downstream station:
Previous Day
Next Day
Current Day
    
SHEF ID:       QUAO2     Spring River near Quapaw, OK
STATION TYPE:  

               PRECIP     STAGE  STAGE(2)  RIV-FLOW  BAT-LOAD
                   in        ft        ft       cfs      volt
              Ccp-Rev   Ccp-Rev   Ccp-Rev   Ccp-Rev   Ccp-Rev
(US/Central)
01/01 00:00      0.00     42.35      5.90    186152     12.41
01/01 01:00      0.00     42.25      5.85    185120     12.41
01/01 02:00      0.00     42.18      5.81    184399     12.41
01/01 03:00      0.00     41.98      5.64    182348     12.41
01/01 04:00      0.00     40.34      5.64    165979     12.33
01/01 05:00      0.00     39.55      5.57    158382     12.33
01/01 06:00      0.00     39.64      5.54    159238     12.25
01/01 07:00      0.00     39.61      5.49    158952     12.25
01/01 08:00      0.00     39.82      5.48    160957     12.17
01/01 09:00      0.00     40.79      5.48    170390     12.49
01/01 10:00      0.00      5.62      5.49       200     13.37
01/01 11:00      0.00      5.66      5.57       211     13.53
01/01 12:00      0.00      5.72      5.46       228     13.53
01/01 13:00      0.00      5.73      5.66       231     13.53
01/01 14:00      0.00      5.71      5.67       225     13.53
01/01 15:00      0.00      5.69      5.66       219     13.53
01/01 16:00      0.00      5.69      5.64       219     13.53
01/01 17:00      0.00      5.69      5.52       219     13.44
01/01 18:00      0.00      5.70      5.64       222     12.97
01/01 19:00      0.00      5.75      5.66       237     12.65
01/01 20:00      0.00      5.86      5.76       271     12.57
01/01 21:00      0.00     11.60      5.90      8292     12.57
01/01 22:00      0.00     20.95      5.87     36225     12.49
01/01 23:00      0.00     31.46      6.03     89999     12.41